sensor_id;sensor_type;location;lat;lon;timestamp;temperature;humidity
69382;DHT22;56560;50.692;12.844;2023-11-19T00:02:19;6.10;77.10
69382;DHT22;56560;50.692;12.844;2023-11-19T00:04:44;6.00;76.70
69382;DHT22;56560;50.692;12.844;2023-11-19T00:07:10;6.00;76.90
69382;DHT22;56560;50.692;12.844;2023-11-19T00:09:37;6.00;76.50
69382;DHT22;56560;50.692;12.844;2023-11-19T00:12:04;6.00;76.80
69382;DHT22;56560;50.692;12.844;2023-11-19T00:14:30;6.00;76.50
69382;DHT22;56560;50.692;12.844;2023-11-19T00:16:56;6.00;76.70
69382;DHT22;56560;50.692;12.844;2023-11-19T00:19:22;6.10;76.70
69382;DHT22;56560;50.692;12.844;2023-11-19T00:21:47;6.10;76.30
69382;DHT22;56560;50.692;12.844;2023-11-19T00:24:13;6.10;76.40
69382;DHT22;56560;50.692;12.844;2023-11-19T00:26:42;6.20;76.20
69382;DHT22;56560;50.692;12.844;2023-11-19T00:29:07;6.20;75.90
69382;DHT22;56560;50.692;12.844;2023-11-19T00:31:33;6.10;75.70
69382;DHT22;56560;50.692;12.844;2023-11-19T00:33:59;6.10;75.60
69382;DHT22;56560;50.692;12.844;2023-11-19T00:36:25;6.10;76.20
69382;DHT22;56560;50.692;12.844;2023-11-19T00:38:51;6.10;76.00
69382;DHT22;56560;50.692;12.844;2023-11-19T00:41:18;6.10;75.60
69382;DHT22;56560;50.692;12.844;2023-11-19T00:43:44;6.10;76.30
69382;DHT22;56560;50.692;12.844;2023-11-19T00:46:09;6.00;76.40
69382;DHT22;56560;50.692;12.844;2023-11-19T00:48:36;6.00;76.70
69382;DHT22;56560;50.692;12.844;2023-11-19T00:51:02;6.00;77.00
69382;DHT22;56560;50.692;12.844;2023-11-19T00:53:29;6.00;77.20
69382;DHT22;56560;50.692;12.844;2023-11-19T00:55:55;6.00;77.70
69382;DHT22;56560;50.692;12.844;2023-11-19T00:58:21;6.00;77.70
69382;DHT22;56560;50.692;12.844;2023-11-19T01:00:46;6.00;77.90
69382;DHT22;56560;50.692;12.844;2023-11-19T01:03:12;6.00;78.30
69382;DHT22;56560;50.692;12.844;2023-11-19T01:05:38;6.00;78.40
69382;DHT22;56560;50.692;12.844;2023-11-19T01:08:04;6.00;79.00
69382;DHT22;56560;50.692;12.844;2023-11-19T01:10:30;5.90;78.70
69382;DHT22;56560;50.692;12.844;2023-11-19T01:12:56;5.90;79.20
69382;DHT22;56560;50.692;12.844;2023-11-19T01:15:22;5.90;79.30
69382;DHT22;56560;50.692;12.844;2023-11-19T01:17:48;5.90;79.70
69382;DHT22;56560;50.692;12.844;2023-11-19T01:20:14;5.90;79.60
69382;DHT22;56560;50.692;12.844;2023-11-19T01:22:40;5.80;80.50
69382;DHT22;56560;50.692;12.844;2023-11-19T01:25:06;5.80;80.80
69382;DHT22;56560;50.692;12.844;2023-11-19T01:27:32;5.80;81.10
69382;DHT22;56560;50.692;12.844;2023-11-19T01:30:00;5.80;81.10
69382;DHT22;56560;50.692;12.844;2023-11-19T01:32:31;5.80;81.30
69382;DHT22;56560;50.692;12.844;2023-11-19T01:34:57;5.80;81.20
69382;DHT22;56560;50.692;12.844;2023-11-19T01:37:22;5.80;81.60
69382;DHT22;56560;50.692;12.844;2023-11-19T01:39:48;5.70;81.90
69382;DHT22;56560;50.692;12.844;2023-11-19T01:42:14;5.80;81.70
69382;DHT22;56560;50.692;12.844;2023-11-19T01:44:41;5.80;81.50
69382;DHT22;56560;50.692;12.844;2023-11-19T01:47:07;5.80;81.40
69382;DHT22;56560;50.692;12.844;2023-11-19T01:49:34;5.80;80.70
69382;DHT22;56560;50.692;12.844;2023-11-19T01:52:00;5.90;80.40
69382;DHT22;56560;50.692;12.844;2023-11-19T01:54:27;5.90;80.40
69382;DHT22;56560;50.692;12.844;2023-11-19T01:56:56;5.90;80.20
69382;DHT22;56560;50.692;12.844;2023-11-19T01:59:23;5.90;80.20
69382;DHT22;56560;50.692;12.844;2023-11-19T02:01:54;5.90;80.00
69382;DHT22;56560;50.692;12.844;2023-11-19T02:04:20;5.90;80.30
69382;DHT22;56560;50.692;12.844;2023-11-19T02:06:48;6.00;80.50
69382;DHT22;56560;50.692;12.844;2023-11-19T02:09:15;6.00;80.50
69382;DHT22;56560;50.692;12.844;2023-11-19T02:11:45;6.00;80.70
69382;DHT22;56560;50.692;12.844;2023-11-19T02:14:13;6.00;80.80
69382;DHT22;56560;50.692;12.844;2023-11-19T02:16:38;6.00;80.50
69382;DHT22;56560;50.692;12.844;2023-11-19T02:19:04;6.00;81.00
69382;DHT22;56560;50.692;12.844;2023-11-19T02:21:31;6.00;81.30
69382;DHT22;56560;50.692;12.844;2023-11-19T02:23:57;6.00;81.60
69382;DHT22;56560;50.692;12.844;2023-11-19T02:29:07;6.00;81.60
69382;DHT22;56560;50.692;12.844;2023-11-19T02:31:33;5.90;81.90
69382;DHT22;56560;50.692;12.844;2023-11-19T02:34:00;5.90;81.80
69382;DHT22;56560;50.692;12.844;2023-11-19T02:36:27;5.90;82.30
69382;DHT22;56560;50.692;12.844;2023-11-19T02:38:53;5.90;82.40
69382;DHT22;56560;50.692;12.844;2023-11-19T02:41:19;5.90;82.70
69382;DHT22;56560;50.692;12.844;2023-11-19T02:43:45;5.90;82.70
69382;DHT22;56560;50.692;12.844;2023-11-19T02:46:14;5.90;82.80
69382;DHT22;56560;50.692;12.844;2023-11-19T02:48:39;5.90;82.90
69382;DHT22;56560;50.692;12.844;2023-11-19T02:51:06;5.90;83.00
69382;DHT22;56560;50.692;12.844;2023-11-19T02:53:35;5.80;83.30
69382;DHT22;56560;50.692;12.844;2023-11-19T02:56:01;5.80;83.30
69382;DHT22;56560;50.692;12.844;2023-11-19T02:58:32;5.90;83.60
69382;DHT22;56560;50.692;12.844;2023-11-19T03:00:57;5.90;83.70
69382;DHT22;56560;50.692;12.844;2023-11-19T03:03:25;5.80;83.50
69382;DHT22;56560;50.692;12.844;2023-11-19T03:05:57;5.80;83.60
69382;DHT22;56560;50.692;12.844;2023-11-19T03:08:22;5.80;84.10
69382;DHT22;56560;50.692;12.844;2023-11-19T03:10:48;5.80;84.20
69382;DHT22;56560;50.692;12.844;2023-11-19T03:13:14;5.90;84.20
69382;DHT22;56560;50.692;12.844;2023-11-19T03:15:41;5.90;84.10
69382;DHT22;56560;50.692;12.844;2023-11-19T03:18:07;6.00;84.10
69382;DHT22;56560;50.692;12.844;2023-11-19T03:20:32;6.00;84.30
69382;DHT22;56560;50.692;12.844;2023-11-19T03:22:59;6.00;83.90
69382;DHT22;56560;50.692;12.844;2023-11-19T03:25:25;6.10;84.10
69382;DHT22;56560;50.692;12.844;2023-11-19T03:27:59;6.10;84.10
69382;DHT22;56560;50.692;12.844;2023-11-19T03:30:26;6.10;84.10
69382;DHT22;56560;50.692;12.844;2023-11-19T03:32:51;6.10;84.00
69382;DHT22;56560;50.692;12.844;2023-11-19T03:35:17;6.20;84.40
69382;DHT22;56560;50.692;12.844;2023-11-19T03:37:43;6.20;83.90
69382;DHT22;56560;50.692;12.844;2023-11-19T03:40:09;6.20;83.80
69382;DHT22;56560;50.692;12.844;2023-11-19T03:42:35;6.20;84.10
69382;DHT22;56560;50.692;12.844;2023-11-19T03:45:01;6.30;84.30
69382;DHT22;56560;50.692;12.844;2023-11-19T03:47:29;6.30;84.40
69382;DHT22;56560;50.692;12.844;2023-11-19T03:49:55;6.30;84.40
69382;DHT22;56560;50.692;12.844;2023-11-19T03:52:20;6.30;84.30
69382;DHT22;56560;50.692;12.844;2023-11-19T03:54:46;6.30;84.30
69382;DHT22;56560;50.692;12.844;2023-11-19T03:57:15;6.40;84.30
69382;DHT22;56560;50.692;12.844;2023-11-19T03:59:44;6.40;84.10
69382;DHT22;56560;50.692;12.844;2023-11-19T04:02:10;6.40;83.90
69382;DHT22;56560;50.692;12.844;2023-11-19T04:04:35;6.50;83.60
69382;DHT22;56560;50.692;12.844;2023-11-19T04:07:01;6.50;83.60
69382;DHT22;56560;50.692;12.844;2023-11-19T04:09:29;6.50;83.80
69382;DHT22;56560;50.692;12.844;2023-11-19T04:11:55;6.60;83.90
69382;DHT22;56560;50.692;12.844;2023-11-19T04:14:21;6.60;83.90
69382;DHT22;56560;50.692;12.844;2023-11-19T04:16:46;6.60;83.80
69382;DHT22;56560;50.692;12.844;2023-11-19T04:19:12;6.60;84.00
69382;DHT22;56560;50.692;12.844;2023-11-19T04:21:40;6.60;84.00
69382;DHT22;56560;50.692;12.844;2023-11-19T04:24:11;6.70;83.90
69382;DHT22;56560;50.692;12.844;2023-11-19T04:26:41;6.70;84.20
69382;DHT22;56560;50.692;12.844;2023-11-19T04:29:09;6.70;84.00
69382;DHT22;56560;50.692;12.844;2023-11-19T04:31:36;6.70;84.00
69382;DHT22;56560;50.692;12.844;2023-11-19T04:34:02;6.70;84.70
69382;DHT22;56560;50.692;12.844;2023-11-19T04:36:27;6.70;84.70
69382;DHT22;56560;50.692;12.844;2023-11-19T04:38:55;6.70;84.90
69382;DHT22;56560;50.692;12.844;2023-11-19T04:41:21;6.80;85.00
69382;DHT22;56560;50.692;12.844;2023-11-19T04:43:46;6.90;85.20
69382;DHT22;56560;50.692;12.844;2023-11-19T04:46:12;6.90;85.60
69382;DHT22;56560;50.692;12.844;2023-11-19T04:48:38;6.90;86.20
69382;DHT22;56560;50.692;12.844;2023-11-19T04:51:07;7.00;86.50
69382;DHT22;56560;50.692;12.844;2023-11-19T04:53:34;7.00;87.20
69382;DHT22;56560;50.692;12.844;2023-11-19T04:56:00;7.00;87.20
69382;DHT22;56560;50.692;12.844;2023-11-19T04:58:28;7.00;90.00
69382;DHT22;56560;50.692;12.844;2023-11-19T05:00:54;7.00;90.10
69382;DHT22;56560;50.692;12.844;2023-11-19T05:03:20;7.10;89.60
69382;DHT22;56560;50.692;12.844;2023-11-19T05:05:45;7.10;88.90
69382;DHT22;56560;50.692;12.844;2023-11-19T05:08:11;7.20;87.70
69382;DHT22;56560;50.692;12.844;2023-11-19T05:10:37;7.30;87.40
69382;DHT22;56560;50.692;12.844;2023-11-19T05:13:02;7.30;87.00
69382;DHT22;56560;50.692;12.844;2023-11-19T05:15:28;7.40;86.70
69382;DHT22;56560;50.692;12.844;2023-11-19T05:17:53;7.40;86.80
69382;DHT22;56560;50.692;12.844;2023-11-19T05:20:19;7.50;86.20
69382;DHT22;56560;50.692;12.844;2023-11-19T05:22:45;7.50;85.80
69382;DHT22;56560;50.692;12.844;2023-11-19T05:25:11;7.50;86.30
69382;DHT22;56560;50.692;12.844;2023-11-19T05:27:37;7.50;86.10
69382;DHT22;56560;50.692;12.844;2023-11-19T05:30:05;7.60;86.10
69382;DHT22;56560;50.692;12.844;2023-11-19T05:32:35;7.60;85.80
69382;DHT22;56560;50.692;12.844;2023-11-19T05:35:04;7.60;85.80
69382;DHT22;56560;50.692;12.844;2023-11-19T05:37:30;7.60;85.80
69382;DHT22;56560;50.692;12.844;2023-11-19T05:39:55;7.60;85.80
69382;DHT22;56560;50.692;12.844;2023-11-19T05:42:21;7.60;86.30
69382;DHT22;56560;50.692;12.844;2023-11-19T05:44:46;7.70;86.60
69382;DHT22;56560;50.692;12.844;2023-11-19T05:47:12;7.70;86.60
69382;DHT22;56560;50.692;12.844;2023-11-19T05:49:38;7.70;86.60
69382;DHT22;56560;50.692;12.844;2023-11-19T05:52:04;7.70;86.40
69382;DHT22;56560;50.692;12.844;2023-11-19T05:54:33;7.70;86.50
69382;DHT22;56560;50.692;12.844;2023-11-19T05:57:04;7.70;86.70
69382;DHT22;56560;50.692;12.844;2023-11-19T05:59:29;7.70;86.70
69382;DHT22;56560;50.692;12.844;2023-11-19T06:01:57;7.80;86.80
69382;DHT22;56560;50.692;12.844;2023-11-19T06:04:23;7.80;87.30
69382;DHT22;56560;50.692;12.844;2023-11-19T06:06:48;7.80;87.00
69382;DHT22;56560;50.692;12.844;2023-11-19T06:09:14;7.80;86.60
69382;DHT22;56560;50.692;12.844;2023-11-19T06:11:40;7.80;86.80
69382;DHT22;56560;50.692;12.844;2023-11-19T06:14:06;7.80;86.90
69382;DHT22;56560;50.692;12.844;2023-11-19T06:16:32;7.70;87.00
69382;DHT22;56560;50.692;12.844;2023-11-19T06:18:58;7.80;87.20
69382;DHT22;56560;50.692;12.844;2023-11-19T06:21:23;7.80;87.10
69382;DHT22;56560;50.692;12.844;2023-11-19T06:23:50;7.90;86.70
69382;DHT22;56560;50.692;12.844;2023-11-19T06:26:17;7.90;86.70
69382;DHT22;56560;50.692;12.844;2023-11-19T06:28:43;8.00;86.40
69382;DHT22;56560;50.692;12.844;2023-11-19T06:31:10;8.00;86.90
69382;DHT22;56560;50.692;12.844;2023-11-19T06:33:35;8.00;86.50
69382;DHT22;56560;50.692;12.844;2023-11-19T06:36:01;8.00;86.60
69382;DHT22;56560;50.692;12.844;2023-11-19T06:38:27;8.00;86.80
69382;DHT22;56560;50.692;12.844;2023-11-19T06:40:52;8.00;86.90
69382;DHT22;56560;50.692;12.844;2023-11-19T06:43:18;8.00;87.00
69382;DHT22;56560;50.692;12.844;2023-11-19T06:45:43;8.10;86.80
69382;DHT22;56560;50.692;12.844;2023-11-19T06:48:09;8.10;87.00
69382;DHT22;56560;50.692;12.844;2023-11-19T06:50:35;8.10;86.70
69382;DHT22;56560;50.692;12.844;2023-11-19T06:53:01;8.10;86.90
69382;DHT22;56560;50.692;12.844;2023-11-19T06:55:27;8.20;86.80
69382;DHT22;56560;50.692;12.844;2023-11-19T06:57:53;8.20;86.50
69382;DHT22;56560;50.692;12.844;2023-11-19T07:00:18;8.30;86.30
69382;DHT22;56560;50.692;12.844;2023-11-19T07:02:44;8.30;86.30
69382;DHT22;56560;50.692;12.844;2023-11-19T07:05:10;8.40;86.40
69382;DHT22;56560;50.692;12.844;2023-11-19T07:07:37;8.40;86.40
69382;DHT22;56560;50.692;12.844;2023-11-19T07:10:03;8.50;86.40
69382;DHT22;56560;50.692;12.844;2023-11-19T07:12:30;8.50;86.30
69382;DHT22;56560;50.692;12.844;2023-11-19T07:14:55;8.60;86.40
69382;DHT22;56560;50.692;12.844;2023-11-19T07:17:21;8.70;86.10
69382;DHT22;56560;50.692;12.844;2023-11-19T07:19:49;8.70;85.80
69382;DHT22;56560;50.692;12.844;2023-11-19T07:22:15;8.70;85.90
69382;DHT22;56560;50.692;12.844;2023-11-19T07:24:41;8.80;85.70
69382;DHT22;56560;50.692;12.844;2023-11-19T07:27:07;8.80;85.60
69382;DHT22;56560;50.692;12.844;2023-11-19T07:29:34;8.90;85.20
69382;DHT22;56560;50.692;12.844;2023-11-19T07:32:00;9.00;85.00
69382;DHT22;56560;50.692;12.844;2023-11-19T07:37:49;9.10;84.60
69382;DHT22;56560;50.692;12.844;2023-11-19T07:40:15;9.20;84.20
69382;DHT22;56560;50.692;12.844;2023-11-19T07:42:41;9.20;84.40
69382;DHT22;56560;50.692;12.844;2023-11-19T07:59:58;9.20;84.70
69382;DHT22;56560;50.692;12.844;2023-11-19T08:02:23;9.20;84.90
69382;DHT22;56560;50.692;12.844;2023-11-19T08:04:50;9.20;84.90
69382;DHT22;56560;50.692;12.844;2023-11-19T08:07:20;9.30;84.70
69382;DHT22;56560;50.692;12.844;2023-11-19T08:13:10;9.50;84.30
69382;DHT22;56560;50.692;12.844;2023-11-19T08:15:35;9.70;83.80
69382;DHT22;56560;50.692;12.844;2023-11-19T08:18:01;9.80;83.40
69382;DHT22;56560;50.692;12.844;2023-11-19T08:20:33;9.90;82.90
69382;DHT22;56560;50.692;12.844;2023-11-19T08:23:02;9.90;82.60
69382;DHT22;56560;50.692;12.844;2023-11-19T08:25:29;10.00;83.00
69382;DHT22;56560;50.692;12.844;2023-11-19T08:27:54;10.10;82.40
69382;DHT22;56560;50.692;12.844;2023-11-19T08:30:20;10.20;82.10
69382;DHT22;56560;50.692;12.844;2023-11-19T08:32:46;10.30;81.80
69382;DHT22;56560;50.692;12.844;2023-11-19T08:35:11;10.30;81.90
69382;DHT22;56560;50.692;12.844;2023-11-19T08:37:37;10.30;81.60
69382;DHT22;56560;50.692;12.844;2023-11-19T08:40:04;10.40;81.50
69382;DHT22;56560;50.692;12.844;2023-11-19T08:42:30;10.40;81.40
69382;DHT22;56560;50.692;12.844;2023-11-19T08:44:56;10.50;81.40
69382;DHT22;56560;50.692;12.844;2023-11-19T08:47:22;10.50;81.30
69382;DHT22;56560;50.692;12.844;2023-11-19T08:49:51;10.60;81.00
69382;DHT22;56560;50.692;12.844;2023-11-19T08:52:17;10.70;80.90
69382;DHT22;56560;50.692;12.844;2023-11-19T08:54:43;10.70;80.70
69382;DHT22;56560;50.692;12.844;2023-11-19T08:57:09;10.70;80.60
69382;DHT22;56560;50.692;12.844;2023-11-19T08:59:35;10.80;80.10
69382;DHT22;56560;50.692;12.844;2023-11-19T09:02:00;11.00;80.30
69382;DHT22;56560;50.692;12.844;2023-11-19T09:04:27;11.10;81.00
69382;DHT22;56560;50.692;12.844;2023-11-19T09:06:53;11.30;80.30
69382;DHT22;56560;50.692;12.844;2023-11-19T09:09:18;11.40;79.00
69382;DHT22;56560;50.692;12.844;2023-11-19T09:11:44;11.30;79.50
69382;DHT22;56560;50.692;12.844;2023-11-19T09:14:10;11.30;79.40
69382;DHT22;56560;50.692;12.844;2023-11-19T09:16:35;11.30;79.70
69382;DHT22;56560;50.692;12.844;2023-11-19T09:19:01;11.50;79.30
69382;DHT22;56560;50.692;12.844;2023-11-19T09:21:28;11.60;78.60
69382;DHT22;56560;50.692;12.844;2023-11-19T09:23:55;11.60;79.70
69382;DHT22;56560;50.692;12.844;2023-11-19T09:26:21;11.80;78.30
69382;DHT22;56560;50.692;12.844;2023-11-19T09:28:52;12.00;77.90
69382;DHT22;56560;50.692;12.844;2023-11-19T09:31:18;12.10;76.50
69382;DHT22;56560;50.692;12.844;2023-11-19T09:33:44;12.10;76.80
69382;DHT22;56560;50.692;12.844;2023-11-19T09:36:12;12.00;77.20
69382;DHT22;56560;50.692;12.844;2023-11-19T09:38:39;11.90;77.30
69382;DHT22;56560;50.692;12.844;2023-11-19T09:41:06;11.80;77.80
69382;DHT22;56560;50.692;12.844;2023-11-19T09:43:35;11.70;78.10
69382;DHT22;56560;50.692;12.844;2023-11-19T09:46:12;11.60;78.20
69382;DHT22;56560;50.692;12.844;2023-11-19T09:48:39;11.50;79.30
69382;DHT22;56560;50.692;12.844;2023-11-19T09:51:11;11.40;80.80
69382;DHT22;56560;50.692;12.844;2023-11-19T09:53:37;11.40;80.90
69382;DHT22;56560;50.692;12.844;2023-11-19T09:56:06;11.30;81.20
69382;DHT22;56560;50.692;12.844;2023-11-19T09:58:36;11.40;81.70
69382;DHT22;56560;50.692;12.844;2023-11-19T10:01:02;11.40;81.80
69382;DHT22;56560;50.692;12.844;2023-11-19T10:03:36;11.50;81.00
69382;DHT22;56560;50.692;12.844;2023-11-19T10:06:08;11.60;80.40
69382;DHT22;56560;50.692;12.844;2023-11-19T10:08:37;11.80;79.90
69382;DHT22;56560;50.692;12.844;2023-11-19T10:11:05;11.90;78.50
69382;DHT22;56560;50.692;12.844;2023-11-19T10:13:31;11.90;78.40
69382;DHT22;56560;50.692;12.844;2023-11-19T10:16:07;11.90;78.00
69382;DHT22;56560;50.692;12.844;2023-11-19T10:18:34;12.10;77.60
69382;DHT22;56560;50.692;12.844;2023-11-19T10:21:04;12.30;77.40
69382;DHT22;56560;50.692;12.844;2023-11-19T10:23:49;12.60;75.30
69382;DHT22;56560;50.692;12.844;2023-11-19T10:26:18;12.90;74.30
69382;DHT22;56560;50.692;12.844;2023-11-19T10:28:46;13.00;73.70
69382;DHT22;56560;50.692;12.844;2023-11-19T10:31:16;13.20;73.00
69382;DHT22;56560;50.692;12.844;2023-11-19T10:33:42;13.60;72.40
69382;DHT22;56560;50.692;12.844;2023-11-19T10:36:13;13.80;71.40
69382;DHT22;56560;50.692;12.844;2023-11-19T10:38:40;14.10;70.20
69382;DHT22;56560;50.692;12.844;2023-11-19T10:41:07;14.10;69.50
69382;DHT22;56560;50.692;12.844;2023-11-19T10:43:43;14.10;69.20
69382;DHT22;56560;50.692;12.844;2023-11-19T10:46:13;14.10;69.00
69382;DHT22;56560;50.692;12.844;2023-11-19T10:48:39;13.90;68.20
69382;DHT22;56560;50.692;12.844;2023-11-19T10:51:07;13.80;69.30
69382;DHT22;56560;50.692;12.844;2023-11-19T10:53:38;13.80;68.60
69382;DHT22;56560;50.692;12.844;2023-11-19T10:56:10;13.70;68.60
69382;DHT22;56560;50.692;12.844;2023-11-19T10:58:37;13.60;69.00
69382;DHT22;56560;50.692;12.844;2023-11-19T11:01:13;13.50;68.90
69382;DHT22;56560;50.692;12.844;2023-11-19T11:03:42;13.30;69.30
69382;DHT22;56560;50.692;12.844;2023-11-19T11:06:11;13.10;69.70
69382;DHT22;56560;50.692;12.844;2023-11-19T11:08:39;13.00;70.30
69382;DHT22;56560;50.692;12.844;2023-11-19T11:11:05;12.90;70.40
69382;DHT22;56560;50.692;12.844;2023-11-19T11:13:32;12.80;70.60
69382;DHT22;56560;50.692;12.844;2023-11-19T11:15:59;12.70;71.30
69382;DHT22;56560;50.692;12.844;2023-11-19T11:18:26;12.60;72.00
69382;DHT22;56560;50.692;12.844;2023-11-19T11:21:05;12.50;72.20
69382;DHT22;56560;50.692;12.844;2023-11-19T11:26:48;12.30;73.10
69382;DHT22;56560;50.692;12.844;2023-11-19T11:32:29;12.20;73.30
69382;DHT22;56560;50.692;12.844;2023-11-19T11:39:57;12.00;74.10
69382;DHT22;56560;50.692;12.844;2023-11-19T11:45:15;11.90;75.10
69382;DHT22;56560;50.692;12.844;2023-11-19T11:58:13;12.40;74.00
69382;DHT22;56560;50.692;12.844;2023-11-19T12:00:41;12.70;73.30
69382;DHT22;56560;50.692;12.844;2023-11-19T12:03:11;13.00;72.70
69382;DHT22;56560;50.692;12.844;2023-11-19T12:05:44;13.30;71.80
69382;DHT22;56560;50.692;12.844;2023-11-19T12:08:11;13.70;71.00
69382;DHT22;56560;50.692;12.844;2023-11-19T12:13:09;14.80;66.40
69382;DHT22;56560;50.692;12.844;2023-11-19T12:18:28;16.00;61.80
69382;DHT22;56560;50.692;12.844;2023-11-19T12:20:54;16.20;59.90
69382;DHT22;56560;50.692;12.844;2023-11-19T12:23:20;16.20;60.30
69382;DHT22;56560;50.692;12.844;2023-11-19T12:25:46;16.50;61.30
69382;DHT22;56560;50.692;12.844;2023-11-19T12:28:12;16.80;59.80
69382;DHT22;56560;50.692;12.844;2023-11-19T12:30:38;16.10;62.20
69382;DHT22;56560;50.692;12.844;2023-11-19T12:33:11;15.60;64.40
69382;DHT22;56560;50.692;12.844;2023-11-19T12:35:41;15.20;67.70
69382;DHT22;56560;50.692;12.844;2023-11-19T12:38:17;14.70;70.40
69382;DHT22;56560;50.692;12.844;2023-11-19T12:41:11;14.60;73.20
69382;DHT22;56560;50.692;12.844;2023-11-19T12:43:43;14.60;73.10
69382;DHT22;56560;50.692;12.844;2023-11-19T12:46:21;14.50;73.70
69382;DHT22;56560;50.692;12.844;2023-11-19T12:48:51;14.30;72.80
69382;DHT22;56560;50.692;12.844;2023-11-19T12:51:17;14.00;74.20
69382;DHT22;56560;50.692;12.844;2023-11-19T12:53:53;13.70;75.80
69382;DHT22;56560;50.692;12.844;2023-11-19T12:56:24;13.50;75.80
69382;DHT22;56560;50.692;12.844;2023-11-19T12:58:50;13.20;76.80
69382;DHT22;56560;50.692;12.844;2023-11-19T13:01:18;12.90;75.70
69382;DHT22;56560;50.692;12.844;2023-11-19T13:03:44;12.70;77.10
69382;DHT22;56560;50.692;12.844;2023-11-19T13:06:14;12.60;76.90
69382;DHT22;56560;50.692;12.844;2023-11-19T13:08:41;12.90;74.70
69382;DHT22;56560;50.692;12.844;2023-11-19T13:11:07;13.20;73.10
69382;DHT22;56560;50.692;12.844;2023-11-19T13:14:00;13.40;75.20
69382;DHT22;56560;50.692;12.844;2023-11-19T13:16:26;13.50;73.80
69382;DHT22;56560;50.692;12.844;2023-11-19T13:18:52;13.40;72.90
69382;DHT22;56560;50.692;12.844;2023-11-19T13:21:18;13.30;71.80
69382;DHT22;56560;50.692;12.844;2023-11-19T13:23:44;13.10;71.80
69382;DHT22;56560;50.692;12.844;2023-11-19T13:26:13;13.10;71.10
69382;DHT22;56560;50.692;12.844;2023-11-19T13:28:39;13.00;71.10
69382;DHT22;56560;50.692;12.844;2023-11-19T13:31:05;12.80;71.00
69382;DHT22;56560;50.692;12.844;2023-11-19T13:33:31;12.70;71.30
69382;DHT22;56560;50.692;12.844;2023-11-19T13:35:57;12.40;72.20
69382;DHT22;56560;50.692;12.844;2023-11-19T13:38:22;12.20;72.80
69382;DHT22;56560;50.692;12.844;2023-11-19T13:40:51;12.00;73.20
69382;DHT22;56560;50.692;12.844;2023-11-19T13:43:17;12.00;74.10
69382;DHT22;56560;50.692;12.844;2023-11-19T13:45:42;12.20;73.50
69382;DHT22;56560;50.692;12.844;2023-11-19T13:48:08;12.40;72.40
69382;DHT22;56560;50.692;12.844;2023-11-19T13:50:34;12.50;72.00
69382;DHT22;56560;50.692;12.844;2023-11-19T13:53:00;12.40;72.40
69382;DHT22;56560;50.692;12.844;2023-11-19T13:55:26;12.10;72.50
69382;DHT22;56560;50.692;12.844;2023-11-19T13:57:52;11.90;72.80
69382;DHT22;56560;50.692;12.844;2023-11-19T14:00:17;11.70;73.80
69382;DHT22;56560;50.692;12.844;2023-11-19T14:02:45;11.70;74.20
69382;DHT22;56560;50.692;12.844;2023-11-19T14:05:11;11.80;73.80
69382;DHT22;56560;50.692;12.844;2023-11-19T14:07:38;11.80;73.90
69382;DHT22;56560;50.692;12.844;2023-11-19T14:10:04;11.60;74.10
69382;DHT22;56560;50.692;12.844;2023-11-19T14:12:34;11.40;75.10
69382;DHT22;56560;50.692;12.844;2023-11-19T14:15:01;11.10;75.40
69382;DHT22;56560;50.692;12.844;2023-11-19T14:17:27;10.90;77.00
69382;DHT22;56560;50.692;12.844;2023-11-19T14:19:52;10.70;77.80
69382;DHT22;56560;50.692;12.844;2023-11-19T14:22:18;10.60;78.40
69382;DHT22;56560;50.692;12.844;2023-11-19T14:24:44;10.50;79.10
69382;DHT22;56560;50.692;12.844;2023-11-19T14:27:10;10.40;79.50
69382;DHT22;56560;50.692;12.844;2023-11-19T14:29:36;10.30;79.80
69382;DHT22;56560;50.692;12.844;2023-11-19T14:32:02;10.30;79.90
69382;DHT22;56560;50.692;12.844;2023-11-19T14:34:31;10.30;79.90
69382;DHT22;56560;50.692;12.844;2023-11-19T14:36:58;10.50;79.50
69382;DHT22;56560;50.692;12.844;2023-11-19T14:39:24;10.60;78.30
69382;DHT22;56560;50.692;12.844;2023-11-19T14:41:50;10.70;78.20
69382;DHT22;56560;50.692;12.844;2023-11-19T14:44:16;10.70;78.10
69382;DHT22;56560;50.692;12.844;2023-11-19T14:46:42;10.50;78.10
69382;DHT22;56560;50.692;12.844;2023-11-19T14:49:08;10.40;78.60
69382;DHT22;56560;50.692;12.844;2023-11-19T14:51:38;10.20;79.00
69382;DHT22;56560;50.692;12.844;2023-11-19T14:54:04;10.10;79.40
69382;DHT22;56560;50.692;12.844;2023-11-19T14:56:30;10.00;79.80
69382;DHT22;56560;50.692;12.844;2023-11-19T14:58:55;9.90;80.20
69382;DHT22;56560;50.692;12.844;2023-11-19T15:01:21;9.80;80.40
69382;DHT22;56560;50.692;12.844;2023-11-19T15:03:47;9.80;80.80
69382;DHT22;56560;50.692;12.844;2023-11-19T15:06:12;9.70;81.00
69382;DHT22;56560;50.692;12.844;2023-11-19T15:08:38;9.70;81.00
69382;DHT22;56560;50.692;12.844;2023-11-19T15:11:04;9.60;80.50
69382;DHT22;56560;50.692;12.844;2023-11-19T15:13:31;9.60;80.40
69382;DHT22;56560;50.692;12.844;2023-11-19T15:15:57;9.60;79.80
69382;DHT22;56560;50.692;12.844;2023-11-19T15:18:23;9.60;79.50
69382;DHT22;56560;50.692;12.844;2023-11-19T15:20:49;9.60;79.80
69382;DHT22;56560;50.692;12.844;2023-11-19T15:23:14;9.50;79.10
69382;DHT22;56560;50.692;12.844;2023-11-19T15:25:41;9.50;78.90
69382;DHT22;56560;50.692;12.844;2023-11-19T15:28:07;9.50;78.90
69382;DHT22;56560;50.692;12.844;2023-11-19T15:30:32;9.50;79.10
69382;DHT22;56560;50.692;12.844;2023-11-19T15:32:58;9.40;78.80
69382;DHT22;56560;50.692;12.844;2023-11-19T15:35:24;9.40;79.20
69382;DHT22;56560;50.692;12.844;2023-11-19T15:37:50;9.30;79.30
69382;DHT22;56560;50.692;12.844;2023-11-19T15:40:15;9.30;79.50
69382;DHT22;56560;50.692;12.844;2023-11-19T15:42:41;9.20;79.70
69382;DHT22;56560;50.692;12.844;2023-11-19T15:45:10;9.10;80.00
69382;DHT22;56560;50.692;12.844;2023-11-19T15:47:37;9.10;80.10
69382;DHT22;56560;50.692;12.844;2023-11-19T15:50:03;9.00;80.30
69382;DHT22;56560;50.692;12.844;2023-11-19T15:52:29;8.90;80.30
69382;DHT22;56560;50.692;12.844;2023-11-19T15:54:58;8.80;81.00
69382;DHT22;56560;50.692;12.844;2023-11-19T15:57:23;8.70;81.30
69382;DHT22;56560;50.692;12.844;2023-11-19T15:59:49;8.60;81.70
69382;DHT22;56560;50.692;12.844;2023-11-19T16:02:16;8.50;82.00
69382;DHT22;56560;50.692;12.844;2023-11-19T16:04:42;8.50;82.00
69382;DHT22;56560;50.692;12.844;2023-11-19T16:07:07;8.40;82.30
69382;DHT22;56560;50.692;12.844;2023-11-19T16:09:33;8.40;82.40
69382;DHT22;56560;50.692;12.844;2023-11-19T16:11:59;8.30;82.60
69382;DHT22;56560;50.692;12.844;2023-11-19T16:14:25;8.20;82.70
69382;DHT22;56560;50.692;12.844;2023-11-19T16:16:51;8.10;82.90
69382;DHT22;56560;50.692;12.844;2023-11-19T16:19:18;8.10;82.90